MST,Max TemperatureF,Mean TemperatureF,Min TemperatureF,Max Dew PointF,MeanDew PointF,Min DewpointF,Max Humidity, Mean Humidity, Min Humidity, Max Sea Level PressureIn, Mean Sea Level PressureIn, Min Sea Level PressureIn, Max VisibilityMiles, Mean VisibilityMiles, Min VisibilityMiles, Max Wind SpeedMPH, Mean Wind SpeedMPH, Max Gust SpeedMPH,PrecipitationIn, CloudCover, Events, WindDirDegrees
2014-1-1,42,28,15,19,15,7,86,61,34,30.32,30.17,30.08,10,10,10,16,5,17,0.00,1,,350
2014-1-2,42,25,8,16,10,3,85,65,26,30.39,30.31,30.24,10,10,10,8,5,,0.00,0,,2
2014-1-3,44,27,10,16,9,3,85,55,21,30.24,30.06,29.91,10,10,10,15,5,,0.00,0,,324
2014-1-4,44,30,15,19,11,0,63,46,31,29.96,29.84,29.70,10,10,10,30,11,41,0.00,1,,266
2014-1-5,24,14,3,1,-6,-9,72,44,24,30.22,30.09,29.96,10,10,10,16,8,18,0.00,0,,346
2014-1-6,30,14,-2,12,-4,-20,100,49,22,30.36,30.29,30.22,10,10,10,13,4,18,0.00,0,,6
2014-1-7,37,22,6,18,3,-18,85,52,17,30.30,30.18,30.06,10,10,8,9,4,,0.00,1,,11
2014-1-8,37,22,6,19,11,1,85,64,36,30.13,30.07,30.03,10,10,10,8,5,,0.00,3,,10
2014-1-9,42,27,12,21,15,9,86,60,33,30.08,30.00,29.89,10,10,10,14,5,22,0.00,3,,258
2014-1-10,41,31,21,19,15,12,80,56,33,30.11,29.91,29.81,10,10,10,28,9,34,0.00,3,,271
2014-1-11,46,29,12,21,16,9,86,57,29,30.26,30.16,30.02,10,10,10,12,4,,0.00,0,,83
2014-1-12,44,30,15,21,14,5,74,52,29,30.12,29.94,29.83,10,10,10,30,7,38,0.00,1,,297
2014-1-13,37,22,8,12,9,3,85,58,32,30.31,30.21,30.12,10,10,10,14,5,22,0.00,0,,261
2014-1-14,41,24,8,16,10,3,92,62,29,30.44,30.33,30.22,10,10,10,24,6,30,0.00,0,,1
2014-1-15,44,26,8,16,12,3,86,60,29,30.41,30.32,30.22,10,10,10,12,5,,0.00,0,,355
2014-1-16,46,29,12,14,10,1,85,55,22,30.31,30.25,30.18,10,10,10,18,4,22,0.00,0,,357
2014-1-17,44,27,10,16,10,3,85,56,23,30.33,30.25,30.20,10,10,9,9,4,,0.00,0,,6
2014-1-18,46,29,12,16,11,5,85,57,25,30.36,30.27,30.19,10,10,10,16,5,18,0.00,0,,4
2014-1-19,46,28,10,16,13,7,86,62,25,30.36,30.28,30.20,10,10,10,12,6,,0.00,0,,358
2014-1-20,48,30,12,16,12,9,86,56,24,30.47,30.31,30.21,10,10,10,16,7,,0.00,0,,5
2014-1-21,46,28,10,16,11,5,86,61,22,30.50,30.41,30.27,10,10,10,10,4,,0.00,0,,360
2014-1-22,39,24,8,16,9,3,85,60,26,30.27,30.10,29.99,10,10,10,8,5,,0.00,0,,1
2014-1-23,30,21,12,18,12,9,92,64,50,30.49,30.27,30.03,10,10,10,17,9,20,0.00,5,,281
2014-1-24,39,22,5,14,9,0,92,66,28,30.50,30.44,30.36,10,10,10,13,4,,0.00,0,,5
2014-1-25,46,28,10,12,8,5,85,54,21,30.42,30.24,30.11,10,10,10,8,5,,0.00,0,,7
2014-1-26,51,30,10,16,12,7,85,55,21,30.11,30.03,29.91,10,10,10,21,6,24,0.00,0,,320
2014-1-27,44,30,15,19,15,10,80,55,31,30.06,29.97,29.88,10,10,10,18,5,23,0.00,0,,248
2014-1-28,37,26,12,14,8,3,80,48,24,30.17,30.07,29.92,10,10,10,17,7,22,0.00,0,,341
2014-1-29,46,26,6,10,6,1,85,47,17,30.16,30.06,29.96,10,10,10,13,4,16,0.00,0,,250
2014-1-30,55,42,28,34,22,10,81,48,31,29.96,29.84,29.75,10,10,8,30,12,40,0.01,3,,214
2014-1-31,46,38,30,34,26,21,81,59,39,29.80,29.74,29.64,10,10,9,26,17,39,0.00,6,,258